La Marque, Texas
Current Conditions -  °F | °C
As of 3:52 AM on Tuesday 21 Oct 2014 (Local Time) from KGLS Reporting Station
Clear Clear  
Wind Chill: 69°   Ceiling: Unl
Heat Index: 69°   Visibility: 10mi
Dew Point: 64°   Wind: 10mph
Humidity: 84%   Direction: 40°NE
Pressure: 29.99"   Gusts: NA
Location:  29.37°N, 94.97°W
Report Text: KGLS 210852Z AUTO 04009KT 10SM CLR 21/18 A2999 RMK AO2 SLP156 T02060178 58004
Loading
Personal Weather Stations






























Interactive Weather Map
Tropical Storm Tracking
New forecast layout! Learn more

10-Day Weather Forecast

Advertisements
Track Severe Weather on mobile